createdAt,value
2022-07-29T00:02:05.534Z,1.57
2022-07-29T00:08:17.135Z,2.02
2022-07-29T00:14:30.136Z,1.72
2022-07-29T00:20:44.418Z,1.77
2022-07-29T00:26:57.218Z,1.45
2022-07-29T00:33:09.287Z,1.45
2022-07-29T00:39:23.234Z,2.02
2022-07-29T00:45:37.481Z,1.67
2022-07-29T00:51:48.930Z,2.17
2022-07-29T00:58:01.702Z,1.90
2022-07-29T01:04:15.193Z,1.72
2022-07-29T01:10:30.332Z,1.98
2022-07-29T01:16:43.087Z,1.35
2022-07-29T01:23:07.491Z,1.47
2022-07-29T01:29:21.789Z,1.47
2022-07-29T01:35:34.623Z,1.00
2022-07-29T01:41:50.333Z,1.20
2022-07-29T01:48:07.025Z,2.00
2022-07-29T01:54:18.650Z,1.40
2022-07-29T02:00:32.610Z,0.90
2022-07-29T02:06:44.371Z,1.40
2022-07-29T02:12:54.141Z,2.10
2022-07-29T02:19:03.817Z,1.05
2022-07-29T02:25:19.234Z,1.55
2022-07-29T02:31:31.626Z,1.27
2022-07-29T02:37:43.923Z,1.40
2022-07-29T02:43:54.253Z,1.10
2022-07-29T02:50:08.429Z,1.20
2022-07-29T02:56:22.138Z,1.67
2022-07-29T03:02:34.115Z,1.25
2022-07-29T03:08:44.543Z,1.30
2022-07-29T03:14:55.286Z,1.62
2022-07-29T03:21:04.798Z,0.88
2022-07-29T03:27:12.738Z,1.62
2022-07-29T03:33:21.701Z,1.62
2022-07-29T03:39:35.203Z,1.12
2022-07-29T03:45:44.338Z,1.35
2022-07-29T03:51:54.127Z,1.37
2022-07-29T03:58:05.022Z,1.30
2022-07-29T04:04:15.978Z,0.72
2022-07-29T04:10:31.758Z,1.22
2022-07-29T04:16:38.552Z,0.85
2022-07-29T04:22:50.199Z,1.25
2022-07-29T04:29:02.364Z,1.13
2022-07-29T04:35:18.317Z,1.10
2022-07-29T04:41:33.415Z,1.20
2022-07-29T04:47:43.416Z,1.30
2022-07-29T04:53:57.437Z,1.20
2022-07-29T05:00:11.326Z,1.37
2022-07-29T05:06:25.759Z,1.17
2022-07-29T05:12:40.086Z,1.00
2022-07-29T05:18:53.920Z,1.32
2022-07-29T05:25:09.323Z,1.32
2022-07-29T05:31:23.397Z,1.47
2022-07-29T05:37:35.800Z,1.67
2022-07-29T05:43:50.013Z,2.25
2022-07-29T05:50:03.830Z,1.87
2022-07-29T05:56:17.436Z,1.60
2022-07-29T06:02:31.336Z,1.52
2022-07-29T06:08:44.450Z,1.67
2022-07-29T06:14:58.742Z,2.08
2022-07-29T06:21:14.045Z,1.52
2022-07-29T06:27:27.770Z,1.40
2022-07-29T06:33:41.595Z,2.22
2022-07-29T06:39:59.468Z,1.70
2022-07-29T06:46:08.488Z,2.15
2022-07-29T06:52:22.377Z,1.42
2022-07-29T06:58:33.040Z,1.42
2022-07-29T07:04:46.970Z,1.65
2022-07-29T07:11:02.901Z,1.80
2022-07-29T07:17:17.233Z,1.70
2022-07-29T07:23:31.251Z,1.57
2022-07-29T07:29:45.822Z,1.60
2022-07-29T07:35:58.193Z,1.15
2022-07-29T07:42:14.459Z,1.07
2022-07-29T07:48:26.624Z,1.40
2022-07-29T07:54:39.251Z,2.17
2022-07-29T08:00:51.011Z,1.77
2022-07-29T08:07:04.052Z,1.22
2022-07-29T08:13:18.627Z,1.75
2022-07-29T08:19:32.952Z,1.40
2022-07-29T08:25:45.328Z,1.37
2022-07-29T08:32:00.566Z,1.50
2022-07-29T08:38:11.508Z,2.08
2022-07-29T08:44:30.426Z,1.32
2022-07-29T08:50:39.122Z,1.32
2022-07-29T08:56:54.826Z,1.55
2022-07-29T09:03:08.888Z,0.80
2022-07-29T09:09:23.164Z,1.37
2022-07-29T09:15:38.142Z,1.77
2022-07-29T09:22:06.679Z,1.15
2022-07-29T09:28:21.347Z,0.95
2022-07-29T09:34:34.996Z,0.82
2022-07-29T09:40:49.285Z,1.15
2022-07-29T09:47:10.078Z,1.45
2022-07-29T09:53:29.872Z,1.27
2022-07-29T09:59:50.061Z,1.27
2022-07-29T10:06:12.247Z,1.98
2022-07-29T10:18:36.871Z,0.95
2022-07-29T10:24:48.182Z,1.37
2022-07-29T10:31:02.235Z,1.42
2022-07-29T10:37:20.640Z,1.10
2022-07-29T10:43:39.520Z,1.07
2022-07-29T10:50:02.890Z,0.90
2022-07-29T10:56:21.085Z,1.52
2022-07-29T11:02:59.435Z,1.20
2022-07-29T11:15:56.192Z,1.67
2022-07-29T11:22:10.087Z,1.25
2022-07-29T11:28:25.825Z,0.75
2022-07-29T11:34:41.088Z,1.40
2022-07-29T11:41:08.985Z,1.35
2022-07-29T11:47:22.994Z,1.10
2022-07-29T11:53:37.694Z,0.95
2022-07-29T11:59:53.895Z,1.02
2022-07-29T12:12:21.433Z,0.95
2022-07-29T12:18:37.225Z,1.12
2022-07-29T12:25:02.225Z,1.00
2022-07-29T12:31:10.417Z,0.82
2022-07-29T12:37:35.792Z,0.88
2022-07-29T12:43:39.777Z,0.85
2022-07-29T12:49:51.427Z,1.15
2022-07-29T12:56:15.594Z,1.25
2022-07-29T13:02:28.372Z,0.83
2022-07-29T13:08:42.595Z,1.00
2022-07-29T13:14:53.565Z,1.10
2022-07-29T13:21:08.962Z,0.93
2022-07-29T13:27:20.542Z,0.82
2022-07-29T13:33:35.047Z,1.10
2022-07-29T13:39:52.801Z,0.93
2022-07-29T13:46:02.912Z,1.30
2022-07-29T13:52:18.850Z,1.17
2022-07-29T13:58:32.757Z,1.40
2022-07-29T14:04:45.251Z,1.10
2022-07-29T14:10:59.007Z,0.90
2022-07-29T14:17:12.494Z,1.10
2022-07-29T14:23:35.200Z,0.70
2022-07-29T14:29:49.794Z,1.05
2022-07-29T14:36:04.384Z,0.80
2022-07-29T14:42:17.374Z,1.05
2022-07-29T14:48:30.498Z,1.12
2022-07-29T14:54:42.886Z,0.80
2022-07-29T15:00:57.935Z,1.17
2022-07-29T15:07:12.486Z,1.30
2022-07-29T15:13:26.838Z,1.30
2022-07-29T15:19:45.027Z,0.78
2022-07-29T15:25:55.247Z,0.98
2022-07-29T15:32:10.301Z,0.90
2022-07-29T15:38:28.583Z,0.70
2022-07-29T15:44:41.894Z,1.27
2022-07-29T15:50:56.225Z,0.80
2022-07-29T15:57:08.826Z,0.90
2022-07-29T16:03:20.216Z,0.90
2022-07-29T16:09:33.897Z,1.02
2022-07-29T16:16:02.279Z,0.80
2022-07-29T16:22:02.625Z,0.93
2022-07-29T16:28:16.837Z,1.20
2022-07-29T16:34:31.001Z,1.25
2022-07-29T16:40:45.882Z,0.60
2022-07-29T16:46:59.058Z,1.00
2022-07-29T16:53:10.790Z,1.22
2022-07-29T16:59:25.462Z,0.60
2022-07-29T17:05:53.751Z,0.75
2022-07-29T17:12:01.356Z,0.67
2022-07-29T17:18:15.143Z,0.93
2022-07-29T17:24:28.787Z,0.90
2022-07-29T17:30:41.536Z,0.98
2022-07-29T17:36:56.353Z,1.10
2022-07-29T17:43:12.223Z,0.88
2022-07-29T17:49:24.505Z,0.90
2022-07-29T17:55:42.261Z,0.70
2022-07-29T18:01:56.812Z,1.00
2022-07-29T18:08:12.922Z,0.82
2022-07-29T18:14:25.274Z,1.22
2022-07-29T18:20:38.982Z,0.88
2022-07-29T18:26:53.125Z,1.35
2022-07-29T18:33:23.411Z,1.00
2022-07-29T18:39:21.441Z,0.70
2022-07-29T18:45:36.083Z,0.45
2022-07-29T18:51:52.415Z,0.60
2022-07-29T18:58:07.408Z,0.90
2022-07-29T19:04:19.821Z,0.65
2022-07-29T19:10:32.224Z,0.68
2022-07-29T19:16:45.400Z,0.60
2022-07-29T19:22:56.937Z,0.62
2022-07-29T19:29:11.786Z,0.57
2022-07-29T19:35:33.987Z,0.80
2022-07-29T19:41:48.723Z,0.70
2022-07-29T19:48:06.200Z,1.10
2022-07-29T19:54:20.694Z,0.85
2022-07-29T20:00:34.874Z,1.07
2022-07-29T20:06:51.002Z,1.10
2022-07-29T20:13:05.103Z,0.95
2022-07-29T20:19:19.202Z,0.78
2022-07-29T20:25:33.304Z,0.95
2022-07-29T20:31:43.882Z,0.65
2022-07-29T20:37:58.936Z,0.60
2022-07-29T20:44:14.138Z,0.40
2022-07-29T20:50:28.307Z,0.80
2022-07-29T20:56:40.085Z,0.47
2022-07-29T21:02:52.546Z,0.60
2022-07-29T21:09:06.700Z,0.90
2022-07-29T21:15:23.225Z,0.68
2022-07-29T21:28:04.729Z,1.30
2022-07-29T21:34:17.813Z,0.60
2022-07-29T21:40:32.976Z,0.60
2022-07-29T21:46:44.013Z,0.60
2022-07-29T21:52:59.550Z,0.57
2022-07-29T21:59:10.524Z,1.02
2022-07-29T22:05:25.591Z,1.05
2022-07-29T22:11:39.106Z,0.62
2022-07-29T22:17:53.117Z,0.50
2022-07-29T22:24:07.438Z,0.42
2022-07-29T22:30:23.610Z,1.25
2022-07-29T22:36:37.121Z,1.00
2022-07-29T22:42:51.333Z,0.57
2022-07-29T22:49:07.812Z,0.50
2022-07-29T22:55:21.261Z,0.37
2022-07-29T23:01:37.745Z,0.55
2022-07-29T23:07:48.433Z,0.60
2022-07-29T23:14:02.840Z,0.30
2022-07-29T23:20:20.030Z,0.85
2022-07-29T23:26:34.142Z,0.78
2022-07-29T23:32:44.989Z,0.80
2022-07-29T23:38:57.356Z,0.85
2022-07-29T23:45:12.548Z,0.70
2022-07-29T23:51:27.048Z,0.43
2022-07-29T23:57:42.023Z,0.53
